Weather History for Jamestown, NY

Change the Weather History Date:

Monday, April 1, 2013

  Actual Average Record
Temperature  
Mean Temperature 32 °F -  
Max Temperature 41 °F 51 °F 72 °F (1986)
Min Temperature 23 °F 29 °F 14 °F (1987)
Degree Days  
Heating Degree Days 33    
Moisture  
Dew Point 22 °F    
Average Humidity 74    
Maximum Humidity 93    
Minimum Humidity 43    
Precipitation  
Precipitation 0.04 in - - ()
Sea Level Pressure  
Sea Level Pressure 29.80 in    
Wind  
Wind Speed 13 mph (West)    
Max Wind Speed 22 mph    
Max Gust Speed 30 mph    
Visibility 8 miles    
Events      
Averages and records for this station are not official NWS values.
T = Trace of Precipitation, MM = Missing Value Source: NWS Daily Summary

Daily Weather History Graph

Daily Weather History Graph

Search for Another Location

Airport:

Trip Planner

Search our weather history database for the weather conditions in past years. The results will help you decide how hot, cold, wet, or windy it might be!

Date:

Astronomy

Apr. 01, 2013 Rise Set
Actual Time 6:59 AM EDT 7:43 PM EDT
Civil Twilight 6:31 AM EDT 8:11 PM EDT
Nautical Twilight 5:57 AM EDT 8:44 PM EDT
Astronomical Twilight 5:22 AM EDT 9:19 PM EDT
Moon 12:54 AM EDT (4/1) 10:39 AM EDT (4/1)
Length of Visible Light 13h 40m
Length of Day
12h 43m
Waning Gibbous, 67% of the Moon is Illuminated
Apr 1
Waning Gibbous
Apr 3
Last Quarter
Apr 10
New
Apr 18
First Quarter
Apr 25
Full

Hourly Weather History & Observations

Time (EDT) Temp. Windchill Dew Point Humidity Pressure Visibility Wind Dir Wind Speed Gust Speed Precip Events Conditions
12:15 AM 39.2 °F 33.0 °F 37.4 °F 93% 29.63 in 9.0 mi SSW 9.2 mph - N/A   Partly Cloudy
12:35 AM 41.0 °F 35.2 °F 37.4 °F 87% 29.63 in 10.0 mi SW 9.2 mph 17.3 mph N/A   Mostly Cloudy
12:55 AM 41.0 °F 34.7 °F 37.4 °F 87% 29.62 in 10.0 mi SW 10.4 mph 17.3 mph N/A   Mostly Cloudy
1:15 AM 41.0 °F 33.9 °F 37.4 °F 87% 29.61 in 10.0 mi SW 12.7 mph - N/A   Mostly Cloudy
1:35 AM 41.0 °F 33.1 °F 37.4 °F 87% 29.62 in 7.0 mi WSW 15.0 mph 29.9 mph 0.01 in   Overcast
2:15 AM 39.2 °F 33.6 °F 37.4 °F 93% 29.61 in 8.0 mi SW 8.1 mph - N/A   Overcast
2:35 AM 39.2 °F 29.8 °F 37.4 °F 93% 29.62 in 7.0 mi WSW 18.4 mph 24.2 mph 0.01 in   Overcast
2:55 AM 39.2 °F 33.0 °F 35.6 °F 87% 29.61 in 10.0 mi West 9.2 mph - 0.01 in   Overcast
3:15 AM 39.2 °F 34.2 °F 35.6 °F 87% 29.61 in 9.0 mi West 6.9 mph - N/A   Overcast
3:35 AM 39.2 °F 33.0 °F 35.6 °F 87% 29.61 in 10.0 mi West 9.2 mph - N/A   Overcast
3:55 AM 39.2 °F 32.5 °F 35.6 °F 87% 29.61 in 10.0 mi WNW 10.4 mph - N/A   Overcast
4:15 AM 37.4 °F 30.3 °F 35.6 °F 93% 29.61 in 9.0 mi WNW 10.4 mph 16.1 mph 0.01 in   Overcast
4:35 AM 37.4 °F 31.4 °F 33.8 °F 87% 29.62 in 10.0 mi WNW 8.1 mph - 0.01 in   Overcast
4:55 AM 37.4 °F 30.8 °F 33.8 °F 87% 29.63 in 9.0 mi West 9.2 mph - 0.01 in   Overcast
5:15 AM 35.6 °F 28.6 °F 33.8 °F 93% 29.64 in 7.0 mi West 9.2 mph - N/A   Overcast
5:35 AM 35.6 °F 26.6 °F 32.0 °F 87% 29.64 in 10.0 mi West 13.8 mph - N/A   Overcast
6:15 AM 35.6 °F 29.2 °F 30.2 °F 81% 29.65 in 6.0 mi WSW 8.1 mph - N/A   Overcast
6:35 AM 33.8 °F 25.3 °F 30.2 °F 87% 29.66 in 5.0 mi West 11.5 mph - N/A   Overcast
6:55 AM 32.0 °F 20.5 °F 28.4 °F 87% 29.68 in 2.0 mi NW 18.4 mph 28.8 mph 0.01 in   Overcast
7:15 AM 30.2 °F 18.1 °F 26.6 °F 86% 29.70 in 1.5 mi NW 18.4 mph 23.0 mph N/A   Overcast
7:35 AM 28.4 °F 16.6 °F 26.6 °F 93% 29.71 in 2.5 mi NW 16.1 mph 24.2 mph N/A   Overcast
7:55 AM 28.4 °F 17.0 °F 24.8 °F 86% 29.73 in 2.0 mi WNW 15.0 mph 19.6 mph N/A   Overcast
8:15 AM 28.4 °F 16.6 °F 23.0 °F 80% 29.75 in 3.0 mi WNW 16.1 mph 23.0 mph N/A   Overcast
8:35 AM 26.6 °F 15.2 °F 23.0 °F 86% 29.75 in 2.0 mi WNW 13.8 mph 20.7 mph N/A   Overcast
8:55 AM 28.4 °F 18.0 °F 23.0 °F 80% 29.76 in 3.0 mi WNW 12.7 mph 19.6 mph N/A   Overcast
9:15 AM 26.6 °F 13.4 °F 23.0 °F 86% 29.77 in 1.0 mi WNW 18.4 mph 25.3 mph N/A   Overcast
9:35 AM 26.6 °F 14.7 °F 21.2 °F 80% 29.78 in 9.0 mi WNW 15.0 mph 23.0 mph N/A   Mostly Cloudy
9:55 AM 28.4 °F 14.7 °F 19.4 °F 69% 29.79 in 10.0 mi WNW 21.9 mph 28.8 mph N/A   Mostly Cloudy
10:15 AM 26.6 °F 14.7 °F 19.4 °F 74% 29.79 in 10.0 mi WNW 15.0 mph 23.0 mph N/A   Overcast
10:35 AM 26.6 °F 13.4 °F 19.4 °F 74% 29.81 in 8.0 mi West 18.4 mph 25.3 mph N/A   Overcast
10:55 AM 26.6 °F 13.1 °F 15.8 °F 64% 29.82 in 10.0 mi WNW 19.6 mph 25.3 mph N/A   Scattered Clouds
11:15 AM 28.4 °F 17.0 °F 14.0 °F 55% 29.83 in 10.0 mi WNW 15.0 mph 24.2 mph N/A   Scattered Clouds
11:35 AM 28.4 °F 15.4 °F 15.8 °F 59% 29.83 in 10.0 mi WNW 19.6 mph 26.5 mph N/A   Overcast
11:55 AM 26.6 °F 13.4 °F 15.8 °F 64% 29.84 in 10.0 mi WNW 18.4 mph 26.5 mph N/A   Mostly Cloudy
12:15 PM 28.4 °F 15.4 °F 17.6 °F 64% 29.85 in 10.0 mi WNW 19.6 mph 25.3 mph N/A   Mostly Cloudy
12:35 PM 26.6 °F 14.3 °F 15.8 °F 64% 29.86 in 9.0 mi West 16.1 mph 25.3 mph N/A   Overcast
12:55 PM 28.4 °F 16.2 °F 15.8 °F 59% 29.86 in 10.0 mi West 17.3 mph 24.2 mph N/A   Overcast
1:15 PM 28.4 °F 15.8 °F 14.0 °F 55% 29.86 in 10.0 mi West 18.4 mph 25.3 mph N/A   Overcast
1:35 PM 28.4 °F 18.0 °F 15.8 °F 59% 29.87 in 10.0 mi West 12.7 mph 23.0 mph N/A   Overcast
2:15 PM 26.6 °F 13.8 °F 15.8 °F 64% 29.88 in 5.0 mi West 17.3 mph 29.9 mph N/A   Overcast
2:35 PM 28.4 °F 15.4 °F 15.8 °F 59% 29.88 in 10.0 mi WNW 19.6 mph 24.2 mph N/A   Overcast
2:55 PM 28.4 °F 16.6 °F 12.2 °F 51% 29.88 in 10.0 mi West 16.1 mph 26.5 mph N/A   Overcast
3:15 PM 28.4 °F 16.2 °F 14.0 °F 55% 29.89 in 10.0 mi West 17.3 mph 23.0 mph N/A   Overcast
3:35 PM 28.4 °F 17.0 °F 12.2 °F 51% 29.89 in 10.0 mi West 15.0 mph 25.3 mph N/A   Overcast
3:55 PM 28.4 °F 17.5 °F 12.2 °F 51% 29.89 in 10.0 mi West 13.8 mph 25.3 mph N/A   Overcast
4:15 PM 28.4 °F 17.5 °F 12.2 °F 51% 29.90 in 10.0 mi West 13.8 mph 21.9 mph N/A   Overcast
4:35 PM 28.4 °F 15.8 °F 10.4 °F 47% 29.90 in 10.0 mi West 18.4 mph 21.9 mph N/A   Overcast
5:15 PM 28.4 °F 15.8 °F 8.6 °F 43% 29.91 in 10.0 mi West 18.4 mph 25.3 mph N/A   Mostly Cloudy
5:35 PM 28.4 °F 17.5 °F 10.4 °F 47% 29.91 in 10.0 mi West 13.8 mph 27.6 mph N/A   Mostly Cloudy
5:55 PM 28.4 °F 16.2 °F 12.2 °F 51% 29.91 in 10.0 mi West 17.3 mph 23.0 mph N/A   Scattered Clouds
6:15 PM 28.4 °F 16.2 °F 12.2 °F 51% 29.92 in 10.0 mi WNW 17.3 mph 24.2 mph N/A   Scattered Clouds
6:35 PM 28.4 °F 19.1 °F 10.4 °F 47% 29.91 in 10.0 mi West 10.4 mph 17.3 mph N/A   Mostly Cloudy
6:55 PM 26.6 °F 15.2 °F 15.8 °F 64% 29.92 in 10.0 mi WNW 13.8 mph 19.6 mph N/A   Mostly Cloudy
7:15 PM 26.6 °F 16.8 °F 17.6 °F 69% 29.92 in 10.0 mi WNW 10.4 mph - N/A   Mostly Cloudy
7:35 PM 26.6 °F 19.1 °F 17.6 °F 69% 29.92 in 10.0 mi West 6.9 mph - N/A   Overcast
7:55 PM 26.6 °F 17.5 °F 15.8 °F 64% 29.92 in 10.0 mi WNW 9.2 mph - N/A   Mostly Cloudy
8:15 PM 24.8 °F 15.3 °F 19.4 °F 80% 29.92 in 2.5 mi West 9.2 mph - N/A   Mostly Cloudy
8:35 PM 24.8 °F 11.5 °F 21.2 °F 86% 29.94 in 3.0 mi WNW 17.3 mph 23.0 mph N/A   Mostly Cloudy
8:55 PM 24.8 °F 13.4 °F 19.4 °F 80% 29.93 in 2.0 mi West 12.7 mph - N/A   Overcast
9:15 PM 23.0 °F 14.7 °F 19.4 °F 86% 29.93 in 10.0 mi WSW 6.9 mph - N/A   Mostly Cloudy
9:35 PM 24.8 °F 16.9 °F 19.4 °F 80% 29.94 in 10.0 mi West 6.9 mph - N/A   Partly Cloudy
9:55 PM 23.0 °F 14.7 °F 19.4 °F 86% 29.94 in 10.0 mi WNW 6.9 mph - N/A   Scattered Clouds
10:15 PM 23.0 °F 14.7 °F 19.4 °F 86% 29.94 in 8.0 mi WNW 6.9 mph - N/A   Mostly Cloudy
10:35 PM 23.0 °F 15.8 °F 19.4 °F 86% 29.94 in 5.0 mi WNW 5.8 mph - N/A   Overcast
10:55 PM 24.8 °F 14.0 °F 19.4 °F 80% 29.95 in 3.0 mi NW 11.5 mph - N/A   Overcast
11:15 PM 24.8 °F 15.3 °F 19.4 °F 80% 29.95 in 4.0 mi NW 9.2 mph - N/A   Overcast
11:35 PM 23.0 °F 12.4 °F 19.4 °F 86% 29.95 in 3.0 mi NW 10.4 mph 17.3 mph N/A   Overcast
11:55 PM 23.0 °F 12.4 °F 17.6 °F 80% 29.95 in 3.0 mi NW 10.4 mph 18.4 mph N/A   Overcast